Time;durP1;ratioP1;P1;durP2;ratioP2;P2;SDS_P1;SDS_P2;PMS_P1;PMS_P2;Temp;Humidity;BMP_temperature;BMP_pressure;BME280_temperature;BME280_humidity;BME280_pressure;Samples;Min_cycle;Max_cycle;Signal;HPM_P1;HPM_P2
2022/11/12 00:00:42;;;;;;;6.70;3.55;;;19.30;64.60;;;;;;5038959;28;20057;-70
2022/11/12 00:03:08;;;;;;;11.02;3.58;;;19.30;64.60;;;;;;5038860;28;20041;-69
2022/11/12 00:05:34;;;;;;;7.65;3.50;;;19.30;64.60;;;;;;5035520;28;20447;-69
2022/11/12 00:08:00;;;;;;;9.52;3.45;;;19.30;64.60;;;;;;5039662;28;20060;-70
2022/11/12 00:10:26;;;;;;;9.88;3.40;;;19.30;64.50;;;;;;5036263;28;20041;-68
2022/11/12 00:12:52;;;;;;;5.60;3.08;;;19.30;64.50;;;;;;5038442;28;20076;-69
2022/11/12 00:15:18;;;;;;;8.18;3.20;;;19.30;64.50;;;;;;5036312;28;20076;-69
2022/11/12 00:17:43;;;;;;;6.28;3.10;;;19.20;64.30;;;;;;5041613;28;20091;-69
2022/11/12 00:20:10;;;;;;;5.78;3.08;;;19.30;64.40;;;;;;5040896;28;20033;-70
2022/11/12 00:22:35;;;;;;;7.70;3.38;;;19.30;64.40;;;;;;5040383;28;20177;-69
2022/11/12 00:25:02;;;;;;;5.90;3.10;;;19.20;64.30;;;;;;5035417;28;20093;-70
2022/11/12 00:27:27;;;;;;;6.93;3.15;;;19.30;64.30;;;;;;5037401;28;20029;-69
2022/11/12 00:29:53;;;;;;;4.95;2.78;;;19.30;64.30;;;;;;5040161;28;20380;-69
2022/11/12 00:32:19;;;;;;;6.57;2.90;;;19.30;64.20;;;;;;5035762;28;20041;-69
2022/11/12 00:34:45;;;;;;;8.00;3.13;;;19.30;64.20;;;;;;5040299;28;20038;-68
2022/11/12 00:37:11;;;;;;;5.30;2.90;;;19.20;64.20;;;;;;5039088;28;20199;-70
2022/11/12 00:39:36;;;;;;;8.48;3.58;;;19.30;64.20;;;;;;5041588;28;20037;-70
2022/11/12 00:42:02;;;;;;;6.63;3.15;;;19.20;64.10;;;;;;5038925;28;20041;-69
2022/11/12 00:44:28;;;;;;;6.72;2.75;;;19.20;64.10;;;;;;5038050;28;20498;-68
2022/11/12 00:46:54;;;;;;;5.80;3.15;;;19.20;64.10;;;;;;5038440;28;20099;-68
2022/11/12 00:49:20;;;;;;;4.50;2.90;;;19.20;64.00;;;;;;5039573;28;20048;-70
2022/11/12 00:51:46;;;;;;;6.65;2.90;;;19.20;64.00;;;;;;5037025;28;20033;-69
2022/11/12 00:54:12;;;;;;;6.32;2.60;;;19.20;64.00;;;;;;5035472;28;20045;-69
2022/11/12 00:56:37;;;;;;;5.88;2.72;;;19.20;64.00;;;;;;5029686;28;20037;-69
2022/11/12 00:59:03;;;;;;;4.72;2.55;;;19.20;63.90;;;;;;5037087;28;20127;-70
2022/11/12 01:01:28;;;;;;;8.20;2.83;;;19.20;63.90;;;;;;5036148;28;20040;-68
2022/11/12 01:03:56;;;;;;;6.35;2.70;;;19.20;63.90;;;;;;5039947;28;20045;-70
2022/11/12 01:06:22;;;;;;;5.93;2.77;;;19.20;63.80;;;;;;5038644;28;20594;-69
2022/11/12 01:08:49;;;;;;;5.50;2.55;;;19.20;63.80;;;;;;5037486;28;20037;-70
2022/11/12 01:11:20;;;;;;;5.20;2.55;;;19.20;63.70;;;;;;5037096;28;20037;-69
2022/11/12 01:13:51;;;;;;;6.88;2.80;;;19.20;63.70;;;;;;5030987;28;20427;-67
2022/11/12 01:16:19;;;;;;;5.00;2.60;;;19.20;63.60;;;;;;5038108;28;20076;-69
2022/11/12 01:18:45;;;;;;;5.32;2.63;;;19.20;63.60;;;;;;5039167;28;20412;-70
2022/11/12 01:21:12;;;;;;;6.57;2.53;;;19.10;63.50;;;;;;5022152;28;20078;-70
2022/11/12 01:23:39;;;;;;;4.43;2.47;;;19.10;63.40;;;;;;5035048;28;20037;-70
2022/11/12 01:26:06;;;;;;;4.63;2.77;;;19.10;63.40;;;;;;5038759;28;20087;-70
2022/11/12 01:28:33;;;;;;;5.35;2.70;;;19.20;63.50;;;;;;5033385;28;20280;-70
2022/11/12 01:31:19;;;;;;;4.13;2.58;;;19.10;63.30;;;;;;5040381;28;20688;-69
2022/11/12 01:33:47;;;;;;;4.50;2.63;;;19.10;63.40;;;;;;5030762;28;20057;-68
2022/11/12 01:36:15;;;;;;;4.67;2.23;;;19.10;63.30;;;;;;5030604;28;20397;-69
2022/11/12 01:38:41;;;;;;;;;;;19.10;63.20;;;;;;5036488;28;20041;-70
2022/11/12 01:41:10;;;;;;;5.97;2.53;;;19.10;63.20;;;;;;5034308;28;19951;-69
2022/11/12 01:43:35;;;;;;;3.40;2.17;;;19.10;63.20;;;;;;5032353;28;20369;-69
2022/11/12 01:46:12;;;;;;;3.78;2.50;;;19.10;63.20;;;;;;5031362;28;20052;-69
2022/11/12 01:48:59;;;;;;;3.47;2.30;;;19.10;63.20;;;;;;5035173;28;20090;-70
2022/11/12 01:51:37;;;;;;;4.45;2.40;;;19.10;63.10;;;;;;5037685;28;20400;-69
2022/11/12 01:54:04;;;;;;;;;;;19.10;63.00;;;;;;5034742;28;20603;-69
2022/11/12 01:56:30;;;;;;;4.18;2.10;;;19.10;63.00;;;;;;5035404;28;19920;-68
2022/11/12 01:59:25;;;;;;;5.10;2.55;;;19.10;63.00;;;;;;5017373;28;20041;-69
2022/11/12 02:01:51;;;;;;;5.13;2.08;;;19.10;62.90;;;;;;5028244;28;20998;-68
2022/11/12 02:04:17;;;;;;;3.47;2.20;;;19.00;62.80;;;;;;5036818;28;20036;-69
2022/11/12 02:06:44;;;;;;;3.50;2.17;;;19.10;62.80;;;;;;5031878;28;20072;-70
2022/11/12 02:09:10;;;;;;;3.30;2.30;;;19.10;62.80;;;;;;5037922;28;20041;-70
2022/11/12 02:11:35;;;;;;;4.47;2.30;;;19.10;62.80;;;;;;5048354;28;20039;-69
2022/11/12 02:14:01;;;;;;;4.80;2.55;;;19.10;62.80;;;;;;5038524;28;20081;-68
2022/11/12 02:16:36;;;;;;;5.25;2.33;;;19.10;62.80;;;;;;5036030;28;20116;-69
2022/11/12 02:19:05;;;;;;;3.78;2.10;;;19.10;62.80;;;;;;5034192;28;20049;-69
2022/11/12 02:21:32;;;;;;;3.42;2.20;;;19.00;62.70;;;;;;5031540;28;20044;-69
2022/11/12 02:23:58;;;;;;;4.38;2.30;;;19.00;62.70;;;;;;5033215;28;20056;-69
2022/11/12 02:26:26;;;;;;;3.85;2.40;;;19.00;62.60;;;;;;5034493;28;20052;-69
2022/11/12 02:28:51;;;;;;;4.65;2.15;;;19.00;62.60;;;;;;5035986;28;20056;-69
2022/11/12 02:31:17;;;;;;;3.33;2.13;;;19.00;62.60;;;;;;5034585;28;20040;-68
2022/11/12 02:33:42;;;;;;;3.75;2.08;;;19.00;62.60;;;;;;5036950;28;20063;-69
2022/11/12 02:36:08;;;;;;;2.88;1.90;;;19.00;62.60;;;;;;5035774;28;20071;-70
2022/11/12 02:38:33;;;;;;;3.00;2.10;;;19.00;62.50;;;;;;5034842;28;20040;-69
2022/11/12 02:40:59;;;;;;;3.80;2.20;;;19.00;62.50;;;;;;5034207;28;20083;-69
2022/11/12 02:43:25;;;;;;;3.08;2.03;;;19.00;62.50;;;;;;5035066;28;20041;-69
2022/11/12 02:45:50;;;;;;;4.07;2.13;;;19.00;62.40;;;;;;5037475;28;20143;-69
2022/11/12 02:48:16;;;;;;;3.13;2.03;;;19.00;62.30;;;;;;5037069;28;20033;-68
2022/11/12 02:50:41;;;;;;;4.07;2.08;;;19.00;62.40;;;;;;5036376;28;20064;-68
2022/11/12 02:53:07;;;;;;;2.85;2.03;;;19.00;62.30;;;;;;5034485;28;20037;-70
2022/11/12 02:55:32;;;;;;;3.72;2.03;;;19.00;62.30;;;;;;5033162;28;20037;-69
2022/11/12 02:57:58;;;;;;;3.50;2.20;;;19.00;62.20;;;;;;5033445;28;20044;-69
2022/11/12 03:00:24;;;;;;;3.28;1.80;;;19.00;62.20;;;;;;5026909;28;20053;-68
2022/11/12 03:02:58;;;;;;;3.55;2.20;;;19.00;63.00;;;;;;5032607;28;20370;-69
2022/11/12 03:05:30;;;;;;;4.25;2.30;;;19.00;62.20;;;;;;5028582;28;20140;-69
2022/11/12 03:08:01;;;;;;;4.03;2.00;;;19.00;62.20;;;;;;5035322;28;20539;-68
2022/11/12 03:10:28;;;;;;;3.05;1.90;;;19.00;62.10;;;;;;5037121;28;20725;-69
2022/11/12 03:12:56;;;;;;;4.20;2.25;;;19.00;62.10;;;;;;5040376;28;20038;-69
2022/11/12 03:15:22;;;;;;;3.67;2.03;;;19.00;62.10;;;;;;5037473;28;20052;-69
2022/11/12 03:17:47;;;;;;;2.97;1.88;;;19.00;62.00;;;;;;5039543;28;20124;-70
2022/11/12 03:20:13;;;;;;;3.42;1.80;;;19.00;62.00;;;;;;5020227;28;20037;-68
2022/11/12 03:22:39;;;;;;;3.70;1.90;;;19.00;61.90;;;;;;5040867;28;20448;-69
2022/11/12 03:25:07;;;;;;;4.00;2.10;;;19.00;61.90;;;;;;5037432;28;20043;-71
2022/11/12 03:27:33;;;;;;;3.35;1.95;;;19.00;61.90;;;;;;5038218;28;20045;-70
2022/11/12 03:29:58;;;;;;;2.78;1.98;;;19.00;61.90;;;;;;5042149;28;20045;-69
2022/11/12 03:32:24;;;;;;;2.78;1.98;;;18.90;61.80;;;;;;5041658;28;20044;-69
2022/11/12 03:34:50;;;;;;;4.53;1.92;;;18.90;61.80;;;;;;5038861;28;20041;-69
2022/11/12 03:37:16;;;;;;;2.75;2.00;;;18.90;61.80;;;;;;5041677;28;20044;-69
2022/11/12 03:39:41;;;;;;;2.97;1.98;;;19.00;61.80;;;;;;5036871;28;20037;-69
2022/11/12 03:42:07;;;;;;;3.78;2.08;;;18.90;61.80;;;;;;5036168;28;20030;-69
2022/11/12 03:44:33;;;;;;;2.10;1.77;;;19.00;61.80;;;;;;5040751;28;20428;-70
2022/11/12 03:46:59;;;;;;;2.80;1.83;;;19.00;61.80;;;;;;5039455;28;20129;-69
2022/11/12 03:49:24;;;;;;;2.58;1.85;;;18.90;61.70;;;;;;5040431;28;20116;-68
2022/11/12 03:51:50;;;;;;;5.10;1.90;;;19.00;61.80;;;;;;5037650;28;20037;-68
2022/11/12 03:54:15;;;;;;;3.30;2.10;;;18.90;61.70;;;;;;5038802;28;20561;-69
2022/11/12 03:56:41;;;;;;;3.58;2.05;;;19.00;61.80;;;;;;5036834;28;20033;-70
2022/11/12 03:59:07;;;;;;;2.92;2.00;;;18.90;61.70;;;;;;5037879;28;20923;-68
2022/11/12 04:01:32;;;;;;;2.70;1.80;;;19.00;61.70;;;;;;5040251;28;20514;-68
2022/11/12 04:03:58;;;;;;;2.60;1.80;;;18.90;61.70;;;;;;5039707;28;20074;-70
2022/11/12 04:09:08;;;;;;;2.50;1.90;;;18.90;61.60;;;;;;5035671;28;20037;-69
2022/11/12 04:11:33;;;;;;;2.35;1.60;;;18.90;61.60;;;;;;5033797;28;20041;-69
2022/11/12 04:13:59;;;;;;;3.80;2.00;;;18.90;61.60;;;;;;5034651;28;20049;-69
2022/11/12 04:22:02;;;;;;;3.25;1.77;;;18.90;61.60;;;;;;5038348;28;20147;-69
2022/11/12 04:27:19;;;;;;;4.10;1.85;;;18.90;61.50;;;;;;5037048;28;20041;-69
2022/11/12 04:32:33;;;;;;;2.42;1.70;;;18.90;61.50;;;;;;5036261;28;20048;-68
2022/11/12 04:35:02;;;;;;;2.83;1.90;;;18.90;61.50;;;;;;5036631;28;20048;-69
2022/11/12 04:37:43;;;;;;;1.88;1.55;;;18.90;61.50;;;;;;5035827;28;20856;-68
2022/11/12 04:45:54;;;;;;;3.78;1.88;;;18.90;61.40;;;;;;5037717;28;20048;-70
2022/11/12 04:48:21;;;;;;;3.22;2.00;;;18.90;61.40;;;;;;5039267;28;20515;-69
2022/11/12 04:50:52;;;;;;;2.85;1.92;;;18.90;61.40;;;;;;5022353;28;20139;-69
2022/11/12 04:53:17;;;;;;;2.55;2.20;;;18.90;61.70;;;;;;5036798;28;20025;-69
2022/11/12 04:55:43;;;;;;;2.67;1.80;;;18.90;61.30;;;;;;5040796;28;20435;-70
2022/11/12 04:58:09;;;;;;;2.55;1.90;;;18.90;61.30;;;;;;5035394;28;20528;-70
2022/11/12 05:00:34;;;;;;;2.65;1.73;;;18.90;61.30;;;;;;5027792;28;20570;-68
2022/11/12 05:03:00;;;;;;;1.98;1.70;;;18.90;61.30;;;;;;5032099;28;20399;-68
2022/11/12 05:05:25;;;;;;;3.80;1.90;;;18.90;61.20;;;;;;5029521;28;20563;-70
2022/11/12 05:07:51;;;;;;;2.95;1.65;;;18.90;61.20;;;;;;5035722;28;20037;-68
2022/11/12 05:10:16;;;;;;;2.38;1.63;;;18.90;61.20;;;;;;5035714;28;20072;-70
2022/11/12 05:12:43;;;;;;;2.58;1.70;;;18.80;61.10;;;;;;5037819;28;20125;-69
2022/11/12 05:15:10;;;;;;;2.75;1.80;;;18.90;61.10;;;;;;5039830;28;20187;-69
2022/11/12 05:17:40;;;;;;;2.10;1.75;;;18.90;61.10;;;;;;5034208;28;20139;-68
2022/11/12 05:20:07;;;;;;;2.67;1.70;;;18.80;61.00;;;;;;5035543;28;20044;-68
2022/11/12 05:22:32;;;;;;;1.98;1.63;;;18.80;61.00;;;;;;5035580;28;20053;-69
2022/11/12 05:24:58;;;;;;;2.85;1.55;;;18.80;61.00;;;;;;5040327;28;20075;-69
2022/11/12 05:27:24;;;;;;;2.40;1.77;;;18.80;61.00;;;;;;5036332;28;20041;-69
2022/11/12 05:29:49;;;;;;;2.78;1.63;;;18.80;60.90;;;;;;5039022;28;20054;-69
2022/11/12 05:32:15;;;;;;;2.67;1.65;;;18.80;60.90;;;;;;5029846;28;20121;-69
2022/11/12 05:34:41;;;;;;;1.83;1.58;;;18.80;60.90;;;;;;5037588;28;20508;-69
2022/11/12 05:37:08;;;;;;;2.10;1.52;;;18.80;60.80;;;;;;5036034;28;20087;-69
2022/11/12 05:39:33;;;;;;;2.53;1.60;;;18.80;60.80;;;;;;5036734;28;20436;-68
2022/11/12 05:41:59;;;;;;;2.50;1.80;;;18.80;60.80;;;;;;5034461;28;20128;-69
2022/11/12 05:44:25;;;;;;;2.22;1.75;;;18.80;60.70;;;;;;5033274;28;20068;-69
2022/11/12 05:46:50;;;;;;;2.60;1.70;;;18.80;60.70;;;;;;5039137;28;20589;-70
2022/11/12 05:49:16;;;;;;;2.50;1.45;;;18.80;60.70;;;;;;5038747;28;20480;-69
2022/11/12 05:51:43;;;;;;;2.45;1.60;;;18.80;60.70;;;;;;5039540;28;20033;-69
2022/11/12 05:54:10;;;;;;;3.47;2.00;;;18.80;60.70;;;;;;5038199;28;20048;-69
2022/11/12 05:56:36;;;;;;;2.22;1.55;;;18.80;60.60;;;;;;5031936;28;20041;-70
2022/11/12 05:59:04;;;;;;;2.50;1.70;;;18.80;60.60;;;;;;5031936;28;20037;-69
2022/11/12 06:01:30;;;;;;;2.88;1.90;;;18.80;60.60;;;;;;5030516;28;20044;-69
2022/11/12 06:03:56;;;;;;;2.47;1.73;;;18.80;60.60;;;;;;5038300;28;20408;-69
2022/11/12 06:06:22;;;;;;;2.42;1.60;;;18.80;60.50;;;;;;5037532;28;20029;-68
2022/11/12 06:08:47;;;;;;;1.63;1.45;;;18.70;60.50;;;;;;5035437;28;20072;-69
2022/11/12 06:11:13;;;;;;;3.30;1.45;;;18.80;60.50;;;;;;5032224;28;20040;-69
2022/11/12 06:13:39;;;;;;;2.20;1.50;;;18.80;61.30;;;;;;5037087;28;20401;-69
2022/11/12 06:16:05;;;;;;;2.17;1.73;;;18.80;60.50;;;;;;5034874;28;20079;-69
2022/11/12 06:18:30;;;;;;;2.20;1.70;;;18.80;60.50;;;;;;5033752;28;20033;-69
2022/11/12 06:21:20;;;;;;;3.63;2.22;;;18.80;60.50;;;;;;5035075;28;20037;-70
2022/11/12 06:23:47;;;;;;;3.28;1.80;;;18.80;60.40;;;;;;5036904;28;20115;-69
2022/11/12 06:26:12;;;;;;;4.55;1.65;;;18.80;60.50;;;;;;5032421;28;20041;-69
2022/11/12 06:28:38;;;;;;;2.30;1.73;;;18.70;60.40;;;;;;5037205;28;20041;-70
2022/11/12 06:31:04;;;;;;;2.17;1.60;;;18.70;60.40;;;;;;5035464;28;20033;-67
2022/11/12 06:33:30;;;;;;;2.65;1.73;;;18.80;60.40;;;;;;5034660;28;20216;-69
2022/11/12 06:36:01;;;;;;;1.60;1.50;;;18.80;60.40;;;;;;5033018;28;20051;-69
2022/11/12 06:38:31;;;;;;;2.63;1.65;;;18.70;60.30;;;;;;5034581;28;20057;-68
2022/11/12 06:40:57;;;;;;;2.00;1.55;;;18.80;60.40;;;;;;5035175;28;20045;-68
2022/11/12 06:43:23;;;;;;;3.60;1.70;;;18.80;60.40;;;;;;5034516;28;20550;-70
2022/11/12 06:45:48;;;;;;;2.45;1.60;;;18.80;60.40;;;;;;5033428;28;20472;-69
2022/11/12 06:48:14;;;;;;;1.90;1.58;;;18.70;60.30;;;;;;5036330;28;20115;-69
2022/11/12 06:50:40;;;;;;;2.80;1.67;;;18.70;60.30;;;;;;5040483;28;20055;-69
2022/11/12 06:53:05;;;;;;;3.83;1.83;;;18.70;60.20;;;;;;5034541;28;20041;-69
2022/11/12 06:55:32;;;;;;;2.28;1.70;;;18.70;60.20;;;;;;5035465;28;20467;-70
2022/11/12 06:57:57;;;;;;;1.95;1.58;;;18.70;60.20;;;;;;5027202;28;20079;-69
2022/11/12 07:00:26;;;;;;;2.83;1.80;;;18.70;60.20;;;;;;5031631;28;20051;-68
2022/11/12 07:02:52;;;;;;;3.05;1.58;;;18.70;60.20;;;;;;5032083;28;20049;-72
2022/11/12 07:05:17;;;;;;;3.45;1.80;;;18.70;60.20;;;;;;5029672;28;20056;-71
2022/11/12 07:07:43;;;;;;;4.45;1.83;;;18.70;60.10;;;;;;5036610;28;20060;-70
2022/11/12 07:10:08;;;;;;;2.10;1.80;;;18.70;60.10;;;;;;5033892;28;20033;-71
2022/11/12 07:12:34;;;;;;;5.05;1.70;;;18.70;60.10;;;;;;5037121;28;20465;-71
2022/11/12 07:15:01;;;;;;;4.35;2.08;;;18.70;60.10;;;;;;5031276;28;20187;-71
2022/11/12 07:17:28;;;;;;;3.28;1.95;;;18.70;60.00;;;;;;5035733;28;20040;-70
2022/11/12 07:19:53;;;;;;;3.50;1.88;;;18.70;60.00;;;;;;5033371;28;20075;-71
2022/11/12 07:22:19;;;;;;;3.20;2.08;;;18.60;60.00;;;;;;5033856;28;20456;-71
2022/11/12 07:24:44;;;;;;;2.65;1.90;;;18.60;60.00;;;;;;5038489;28;20063;-71
2022/11/12 07:27:10;;;;;;;3.20;2.28;;;18.60;60.00;;;;;;5033529;28;20037;-72
2022/11/12 07:29:35;;;;;;;2.95;2.20;;;18.70;60.10;;;;;;5032159;28;20060;-71
2022/11/12 07:32:01;;;;;;;3.13;1.70;;;18.60;60.10;;;;;;5035078;28;20189;-71
2022/11/12 07:34:27;;;;;;;4.15;2.05;;;18.60;60.20;;;;;;5030428;28;20076;-71
2022/11/12 07:36:52;;;;;;;2.33;1.60;;;18.60;60.20;;;;;;5035982;28;20610;-73
2022/11/12 07:39:18;;;;;;;2.22;1.73;;;18.60;60.20;;;;;;5035679;28;20102;-71
2022/11/12 07:41:43;;;;;;;2.40;1.80;;;18.70;60.30;;;;;;5034198;28;20065;-75
2022/11/12 07:44:09;;;;;;;3.10;1.80;;;18.70;60.30;;;;;;5035051;28;20033;-73
2022/11/12 07:46:35;;;;;;;2.10;1.70;;;18.70;60.30;;;;;;5035373;28;20044;-71
2022/11/12 07:49:01;;;;;;;6.68;1.67;;;18.70;60.30;;;;;;5034973;28;20052;-72
2022/11/12 07:51:28;;;;;;;1.85;1.65;;;18.70;60.30;;;;;;5035375;28;20103;-73
2022/11/12 07:53:56;;;;;;;2.55;1.80;;;18.70;60.30;;;;;;5035512;28;20033;-73
2022/11/12 07:56:23;;;;;;;4.53;2.03;;;18.70;60.20;;;;;;5030204;28;20037;-73
2022/11/12 07:58:49;;;;;;;4.75;1.73;;;18.70;60.10;;;;;;5031971;28;20663;-71
2022/11/12 08:01:34;;;;;;;4.38;2.00;;;18.70;60.10;;;;;;5039743;28;20051;-73
2022/11/12 08:04:02;;;;;;;6.13;2.25;;;18.70;60.10;;;;;;5038096;28;20131;-73
2022/11/12 08:06:29;;;;;;;4.47;2.17;;;18.70;60.10;;;;;;5034435;28;20045;-74
2022/11/12 08:08:56;;;;;;;5.85;2.22;;;18.70;60.30;;;;;;5033511;28;20033;-72
2022/11/12 08:11:22;;;;;;;3.05;2.05;;;18.70;60.30;;;;;;5036106;28;20337;-72
2022/11/12 08:13:48;;;;;;;6.38;2.17;;;18.70;60.40;;;;;;5035264;28;20025;-68
2022/11/12 08:16:14;;;;;;;4.72;2.22;;;18.70;60.40;;;;;;5036358;28;20147;-73
2022/11/12 08:18:41;;;;;;;4.28;2.30;;;18.70;60.40;;;;;;5032678;28;20072;-72
2022/11/12 08:21:11;;;;;;;4.53;2.13;;;18.70;60.40;;;;;;5036415;28;20079;-71
2022/11/12 08:23:36;;;;;;;4.15;2.30;;;18.70;60.40;;;;;;5035198;28;20083;-73
2022/11/12 08:26:05;;;;;;;4.07;2.20;;;18.70;60.40;;;;;;5039498;28;20048;-70
2022/11/12 08:28:32;;;;;;;4.97;2.22;;;18.70;60.40;;;;;;5035426;28;20049;-70
2022/11/12 08:31:02;;;;;;;3.38;2.15;;;18.80;60.50;;;;;;5036427;28;20398;-70
2022/11/12 08:33:28;;;;;;;2.92;2.10;;;18.70;60.50;;;;;;5035007;28;20056;-71
2022/11/12 08:35:54;;;;;;;4.88;2.28;;;18.70;60.60;;;;;;5038536;28;20120;-70
2022/11/12 08:38:19;;;;;;;4.93;2.30;;;18.70;60.50;;;;;;5037628;28;20125;-70
2022/11/12 08:40:45;;;;;;;4.25;2.38;;;18.70;60.50;;;;;;5038203;28;20041;-70
2022/11/12 08:43:11;;;;;;;5.72;2.40;;;18.80;60.70;;;;;;5037281;28;20203;-70
2022/11/12 08:45:38;;;;;;;5.38;2.20;;;18.80;60.70;;;;;;5031727;28;20120;-71
2022/11/12 08:48:06;;;;;;;5.50;2.38;;;18.70;60.60;;;;;;5039386;28;20396;-70
2022/11/12 08:50:33;;;;;;;4.30;2.35;;;18.80;60.70;;;;;;5039583;28;20464;-71
2022/11/12 08:53:00;;;;;;;4.13;2.28;;;18.80;60.70;;;;;;5039405;28;20507;-71
2022/11/12 08:55:27;;;;;;;9.07;2.25;;;18.80;60.70;;;;;;5038714;28;20400;-70
2022/11/12 08:57:52;;;;;;;3.47;2.15;;;18.70;60.70;;;;;;5036921;28;20384;-71
2022/11/12 09:00:18;;;;;;;6.32;2.30;;;18.80;60.70;;;;;;5034295;28;20041;-72
2022/11/12 09:02:44;;;;;;;4.53;2.63;;;18.80;60.80;;;;;;5038365;28;20044;-70
2022/11/12 09:05:09;;;;;;;5.13;2.22;;;18.80;60.70;;;;;;5034679;28;20076;-70
2022/11/12 09:07:35;;;;;;;4.30;2.40;;;18.80;60.70;;;;;;5039523;28;20707;-70
2022/11/12 09:10:00;;;;;;;5.15;2.67;;;18.80;60.70;;;;;;5037056;28;20433;-71
2022/11/12 09:12:26;;;;;;;5.88;2.88;;;18.80;60.70;;;;;;5039236;28;20048;-70
2022/11/12 09:14:52;;;;;;;4.90;2.42;;;18.80;60.60;;;;;;5036929;28;20052;-70
2022/11/12 09:17:20;;;;;;;5.78;2.58;;;18.80;60.70;;;;;;5034133;28;20095;-70
2022/11/12 09:19:46;;;;;;;6.10;2.78;;;18.80;60.60;;;;;;5035034;28;20044;-69
2022/11/12 09:22:12;;;;;;;3.83;2.67;;;18.80;60.70;;;;;;5039882;28;20053;-71
2022/11/12 09:24:37;;;;;;;4.18;2.58;;;18.80;60.70;;;;;;5039564;28;20060;-70
2022/11/12 09:27:03;;;;;;;4.78;2.80;;;18.80;60.70;;;;;;5039091;28;20492;-70
2022/11/12 09:29:28;;;;;;;4.43;2.75;;;18.80;60.80;;;;;;5033478;28;20384;-71
2022/11/12 09:31:54;;;;;;;7.07;2.83;;;18.90;60.90;;;;;;5034776;28;20056;-70
2022/11/12 09:34:20;;;;;;;5.50;2.70;;;18.80;60.90;;;;;;5037277;28;20161;-71
2022/11/12 09:36:45;;;;;;;4.75;2.97;;;18.80;60.80;;;;;;5035768;28;20056;-70
2022/11/12 09:39:11;;;;;;;4.10;2.72;;;18.80;60.80;;;;;;5033994;28;20087;-72
2022/11/12 09:41:38;;;;;;;5.05;2.67;;;18.80;60.80;;;;;;5033790;28;20041;-71
2022/11/12 09:44:14;;;;;;;3.60;2.45;;;18.80;60.80;;;;;;5038145;28;20037;-71
2022/11/12 09:46:49;;;;;;;4.50;2.65;;;18.80;60.70;;;;;;5044752;28;20127;-71
2022/11/12 09:49:22;;;;;;;8.43;2.75;;;18.80;60.70;;;;;;5045791;28;20048;-71
2022/11/12 09:52:00;;;;;;;5.90;2.83;;;18.80;60.70;;;;;;5038877;28;20064;-71
2022/11/12 09:54:35;;;;;;;4.78;3.13;;;18.80;60.70;;;;;;5039799;28;20133;-71
2022/11/12 09:57:01;;;;;;;4.88;2.78;;;18.90;60.70;;;;;;5028695;28;20415;-72
2022/11/12 09:59:33;;;;;;;4.50;2.90;;;18.80;60.70;;;;;;5037619;28;20182;-71
2022/11/12 10:02:23;;;;;;;4.82;2.78;;;18.80;60.60;;;;;;5045782;28;20618;-72
2022/11/12 10:05:13;;;;;;;4.57;2.55;;;18.80;60.60;;;;;;5044281;28;20155;-71
2022/11/12 10:07:53;;;;;;;6.03;3.08;;;18.80;60.60;;;;;;5044231;28;20072;-71
2022/11/12 10:10:33;;;;;;;4.97;2.65;;;18.80;60.60;;;;;;5033747;28;20033;-71
2022/11/12 10:12:59;;;;;;;4.53;3.00;;;18.80;60.60;;;;;;5038269;28;20083;-72
2022/11/12 10:19:12;;;;;;;5.63;2.92;;;18.80;61.40;;;;;;5039958;28;20046;-72
2022/11/12 10:22:15;;;;;;;5.00;3.00;;;18.80;60.60;;;;;;5034415;28;20553;-72
2022/11/12 10:24:41;;;;;;;7.15;3.25;;;18.80;60.60;;;;;;5039996;28;20045;-72
2022/11/12 10:27:24;;;;;;;5.43;3.20;;;18.80;60.60;;;;;;5034170;28;20132;-72
2022/11/12 10:30:03;;;;;;;5.63;3.00;;;18.80;60.50;;;;;;5038749;28;20536;-72
2022/11/12 10:32:29;;;;;;;4.85;2.88;;;18.80;60.50;;;;;;5045549;28;20048;-71
2022/11/12 10:34:54;;;;;;;4.90;2.90;;;18.80;60.50;;;;;;5041006;28;20500;-71
2022/11/12 10:37:34;;;;;;;5.55;3.08;;;18.80;60.50;;;;;;5043670;28;20044;-72
2022/11/12 10:40:20;;;;;;;7.05;3.40;;;18.80;60.50;;;;;;5043171;28;20036;-72
2022/11/12 10:43:00;;;;;;;5.38;3.35;;;18.80;60.40;;;;;;5040962;28;20554;-72
2022/11/12 10:45:27;;;;;;;5.10;3.30;;;18.90;60.40;;;;;;5032888;28;20053;-73
2022/11/12 10:47:52;;;;;;;4.72;3.20;;;18.80;60.40;;;;;;5043771;28;20045;-72
2022/11/12 10:50:28;;;;;;;5.63;3.70;;;18.90;60.40;;;;;;5042465;28;20037;-73
2022/11/12 10:53:04;;;;;;;4.50;3.30;;;18.90;60.30;;;;;;5042299;28;20063;-69
2022/11/12 10:55:54;;;;;;;6.88;3.13;;;18.90;60.30;;;;;;5040075;28;20167;-70
2022/11/12 10:58:20;;;;;;;5.10;3.40;;;18.90;60.30;;;;;;5040056;28;20041;-70
2022/11/12 11:01:13;;;;;;;5.10;3.45;;;18.90;60.30;;;;;;5038542;28;20083;-71
2022/11/12 11:04:14;;;;;;;5.13;3.13;;;19.00;60.30;;;;;;5030951;28;20056;-70
2022/11/12 11:06:39;;;;;;;6.05;3.38;;;19.00;60.30;;;;;;5038979;28;20091;-70
2022/11/12 11:09:11;;;;;;;6.18;3.50;;;19.00;60.30;;;;;;5040296;28;20068;-70
2022/11/12 11:11:46;;;;;;;6.25;2.92;;;19.00;60.30;;;;;;5032217;28;20273;-70
2022/11/12 11:14:33;;;;;;;5.22;3.17;;;19.00;60.30;;;;;;5039843;28;20075;-69
2022/11/12 11:17:07;;;;;;;9.27;3.20;;;19.00;60.40;;;;;;5021602;28;20056;-69
2022/11/12 11:19:38;;;;;;;5.88;3.17;;;19.00;60.40;;;;;;5037281;28;20049;-70
2022/11/12 11:22:23;;;;;;;5.90;3.10;;;19.10;60.40;;;;;;5052043;28;20047;-72
2022/11/12 11:25:16;;;;;;;11.30;3.53;;;19.10;60.50;;;;;;5034424;28;20037;-71
2022/11/12 11:28:04;;;;;;;7.53;3.00;;;19.10;60.50;;;;;;5033979;28;20045;-72
2022/11/12 11:30:32;;;;;;;5.82;3.35;;;19.10;60.60;;;;;;5035141;28;20099;-71
2022/11/12 11:33:24;;;;;;;4.57;2.88;;;19.10;60.60;;;;;;5036461;28;20214;-71
2022/11/12 11:36:10;;;;;;;5.40;3.28;;;19.10;60.80;;;;;;5038650;28;20665;-71
2022/11/12 11:38:51;;;;;;;6.30;3.22;;;19.20;60.70;;;;;;5038482;28;20808;-70
2022/11/12 11:41:29;;;;;;;7.53;3.08;;;19.20;60.80;;;;;;5039197;28;20072;-71
2022/11/12 11:44:15;;;;;;;7.13;3.00;;;19.20;60.90;;;;;;5038532;28;20033;-72
2022/11/12 11:46:53;;;;;;;5.15;3.10;;;19.20;61.00;;;;;;5041064;28;20139;-72
2022/11/12 11:49:40;;;;;;;8.13;2.90;;;19.20;61.00;;;;;;5041391;28;20067;-72
2022/11/12 11:52:27;;;;;;;5.43;3.13;;;19.20;61.00;;;;;;5039540;28;20045;-71
2022/11/12 11:55:25;;;;;;;5.97;3.05;;;19.30;61.10;;;;;;5037470;28;20285;-71
2022/11/12 11:58:04;;;;;;;6.88;3.50;;;19.20;61.20;;;;;;5023919;28;20127;-70
2022/11/12 12:00:59;;;;;;;4.63;3.20;;;19.20;61.10;;;;;;5039210;28;20500;-71
2022/11/12 12:03:37;;;;;;;4.43;2.88;;;19.30;61.20;;;;;;5021798;28;20115;-71
2022/11/12 12:06:26;;;;;;;6.18;3.15;;;19.30;61.20;;;;;;5019379;28;20059;-69
2022/11/12 12:09:05;;;;;;;10.15;3.53;;;19.30;61.20;;;;;;5039027;28;20040;-71
2022/11/12 12:12:01;;;;;;;7.88;3.10;;;19.30;61.30;;;;;;5029750;28;20080;-72
2022/11/12 12:14:44;;;;;;;7.15;2.85;;;19.30;61.50;;;;;;5037767;28;20053;-71
2022/11/12 12:17:31;;;;;;;6.75;3.17;;;19.40;61.70;;;;;;5035560;28;20091;-71
2022/11/12 12:20:13;;;;;;;5.10;3.22;;;19.50;61.70;;;;;;5041904;28;20270;-71
2022/11/12 12:22:48;;;;;;;6.28;2.88;;;19.50;61.70;;;;;;5037092;28;20431;-72
2022/11/12 12:25:23;;;;;;;8.48;3.25;;;19.60;61.70;;;;;;5038842;28;20037;-70
2022/11/12 12:28:16;;;;;;;9.10;3.28;;;19.60;61.70;;;;;;5036687;28;20113;-69
2022/11/12 12:30:46;;;;;;;12.85;3.58;;;19.70;61.70;;;;;;5039148;28;20097;-70
2022/11/12 12:33:38;;;;;;;5.80;3.22;;;19.70;61.60;;;;;;5046634;28;20565;-70
2022/11/12 12:36:07;;;;;;;5.47;2.78;;;19.70;61.40;;;;;;5017708;28;20095;-70
2022/11/12 12:38:51;;;;;;;4.35;2.88;;;19.70;61.40;;;;;;5052838;28;20041;-73
2022/11/12 12:41:26;;;;;;;6.10;3.00;;;19.80;61.50;;;;;;5029000;28;20053;-74
2022/11/12 12:44:12;;;;;;;5.65;3.15;;;19.80;61.50;;;;;;5037181;28;20132;-73
2022/11/12 12:46:52;;;;;;;6.55;2.83;;;19.80;61.50;;;;;;5040439;28;20045;-73
2022/11/12 12:49:24;;;;;;;11.05;3.40;;;19.80;61.50;;;;;;5041374;28;20037;-70
2022/11/12 12:51:50;;;;;;;5.25;3.20;;;19.80;61.50;;;;;;5038382;28;20037;-70
2022/11/12 12:54:51;;;;;;;6.35;3.13;;;19.90;61.60;;;;;;5043051;28;20566;-69
2022/11/12 12:57:35;;;;;;;9.30;3.20;;;19.80;61.60;;;;;;5026203;28;20929;-70
2022/11/12 13:00:28;;;;;;;5.13;2.72;;;19.80;61.40;;;;;;5025986;28;20049;-70
2022/11/12 13:02:55;;;;;;;4.43;2.90;;;19.90;61.50;;;;;;5031462;28;20065;-68
2022/11/12 13:05:39;;;;;;;7.32;2.90;;;19.90;61.50;;;;;;5027681;28;20099;-68
2022/11/12 13:08:12;;;;;;;7.07;3.17;;;19.90;61.50;;;;;;5028631;28;20064;-73
2022/11/12 13:10:38;;;;;;;5.18;3.30;;;19.90;61.50;;;;;;5030622;28;20581;-69
2022/11/12 13:13:05;;;;;;;7.45;3.08;;;19.90;61.50;;;;;;5032352;28;20041;-68
2022/11/12 13:15:43;;;;;;;11.50;2.83;;;19.90;61.50;;;;;;5024269;28;20076;-71
2022/11/12 13:18:09;;;;;;;6.38;2.95;;;19.90;61.30;;;;;;5022006;28;20111;-68
2022/11/12 13:20:40;;;;;;;5.40;3.00;;;19.90;61.40;;;;;;5024486;28;20048;-70
2022/11/12 13:23:30;;;;;;;7.60;3.00;;;19.90;61.40;;;;;;5011730;28;20118;-71
2022/11/12 13:26:34;;;;;;;4.97;2.60;;;19.90;61.40;;;;;;5017577;28;20044;-69